sensor_id;sensor_type;location;lat;lon;timestamp;pressure;altitude;pressure_sealevel;temperature;humidity
17785;BME280;9016;53.582;10.062;2023-02-27T00:00:41;102784.81;;;2.99;63.74
17785;BME280;9016;53.582;10.062;2023-02-27T00:03:09;102790.97;;;2.96;63.93
17785;BME280;9016;53.582;10.062;2023-02-27T00:05:37;102786.56;;;2.95;64.18
17785;BME280;9016;53.582;10.062;2023-02-27T00:08:05;102787.50;;;3.00;64.18
17785;BME280;9016;53.582;10.062;2023-02-27T00:10:33;102784.84;;;3.03;63.87
17785;BME280;9016;53.582;10.062;2023-02-27T00:13:02;102783.09;;;2.96;63.56
17785;BME280;9016;53.582;10.062;2023-02-27T00:15:30;102790.13;;;3.00;64.23
17785;BME280;9016;53.582;10.062;2023-02-27T00:17:59;102793.66;;;3.04;63.80
17785;BME280;9016;53.582;10.062;2023-02-27T00:20:27;102789.25;;;3.03;63.63
17785;BME280;9016;53.582;10.062;2023-02-27T00:22:55;102794.50;;;3.00;63.75
17785;BME280;9016;53.582;10.062;2023-02-27T00:25:23;102793.59;;;2.93;63.94
17785;BME280;9016;53.582;10.062;2023-02-27T00:27:51;102796.25;;;2.98;64.03
17785;BME280;9016;53.582;10.062;2023-02-27T00:30:21;102796.25;;;2.95;63.64
17785;BME280;9016;53.582;10.062;2023-02-27T00:32:49;102800.63;;;2.99;63.75
17785;BME280;9016;53.582;10.062;2023-02-27T00:35:17;102791.88;;;3.01;63.54
17785;BME280;9016;53.582;10.062;2023-02-27T00:37:46;102801.53;;;2.99;63.87
17785;BME280;9016;53.582;10.062;2023-02-27T00:40:14;102791.84;;;2.97;64.15
17785;BME280;9016;53.582;10.062;2023-02-27T00:42:43;102794.50;;;3.00;64.14
17785;BME280;9016;53.582;10.062;2023-02-27T00:45:11;102798.88;;;2.99;64.18
17785;BME280;9016;53.582;10.062;2023-02-27T00:47:41;102803.16;;;2.75;64.62
17785;BME280;9016;53.582;10.062;2023-02-27T00:50:10;102795.25;;;2.70;65.17
17785;BME280;9016;53.582;10.062;2023-02-27T00:52:38;102792.59;;;2.66;64.80
17785;BME280;9016;53.582;10.062;2023-02-27T00:55:07;102793.47;;;2.63;64.87
17785;BME280;9016;53.582;10.062;2023-02-27T00:57:35;102794.34;;;2.64;65.29
17785;BME280;9016;53.582;10.062;2023-02-27T01:00:05;102799.59;;;2.61;65.17
17785;BME280;9016;53.582;10.062;2023-02-27T01:02:34;102802.22;;;2.64;65.39
17785;BME280;9016;53.582;10.062;2023-02-27T01:05:04;102796.97;;;2.62;65.29
17785;BME280;9016;53.582;10.062;2023-02-27T01:07:32;102804.84;;;2.56;65.94
17785;BME280;9016;53.582;10.062;2023-02-27T01:09:59;102795.13;;;2.49;65.84
17785;BME280;9016;53.582;10.062;2023-02-27T01:12:27;102792.50;;;2.48;66.17
17785;BME280;9016;53.582;10.062;2023-02-27T01:14:55;102794.28;;;2.53;65.57
17785;BME280;9016;53.582;10.062;2023-02-27T01:17:23;102791.59;;;2.47;66.40
17785;BME280;9016;53.582;10.062;2023-02-27T01:19:51;102787.25;;;2.49;66.47
17785;BME280;9016;53.582;10.062;2023-02-27T01:22:21;102795.16;;;2.54;66.27
17785;BME280;9016;53.582;10.062;2023-02-27T01:24:51;102790.84;;;2.63;66.26
17785;BME280;9016;53.582;10.062;2023-02-27T01:27:19;102792.63;;;2.69;65.84
17785;BME280;9016;53.582;10.062;2023-02-27T01:29:47;102778.56;;;2.70;65.49
17785;BME280;9016;53.582;10.062;2023-02-27T01:32:18;102778.56;;;2.68;65.42
17785;BME280;9016;53.582;10.062;2023-02-27T01:34:46;102784.72;;;2.69;65.59
17785;BME280;9016;53.582;10.062;2023-02-27T01:37:16;102772.44;;;2.68;65.98
17785;BME280;9016;53.582;10.062;2023-02-27T01:39:46;102780.31;;;2.62;65.76
17785;BME280;9016;53.582;10.062;2023-02-27T01:42:18;102779.38;;;2.57;65.99
17785;BME280;9016;53.582;10.062;2023-02-27T01:45:17;102777.66;;;2.59;65.62
17785;BME280;9016;53.582;10.062;2023-02-27T01:47:48;102774.97;;;2.53;66.57
17785;BME280;9016;53.582;10.062;2023-02-27T01:50:18;102778.50;;;2.53;65.92
17785;BME280;9016;53.582;10.062;2023-02-27T01:52:52;102784.66;;;2.54;66.38
17785;BME280;9016;53.582;10.062;2023-02-27T01:55:23;102779.34;;;2.48;66.37
17785;BME280;9016;53.582;10.062;2023-02-27T01:57:53;102772.34;;;2.47;66.64
17785;BME280;9016;53.582;10.062;2023-02-27T02:00:26;102781.09;;;2.47;66.22
17785;BME280;9016;53.582;10.062;2023-02-27T02:03:01;102778.44;;;2.41;67.23
17785;BME280;9016;53.582;10.062;2023-02-27T02:05:32;102791.59;;;2.41;66.80
17785;BME280;9016;53.582;10.062;2023-02-27T02:08:01;102786.38;;;2.49;66.49
17785;BME280;9016;53.582;10.062;2023-02-27T02:10:31;102794.25;;;2.47;65.82
17785;BME280;9016;53.582;10.062;2023-02-27T02:13:00;102794.22;;;2.40;66.80
17785;BME280;9016;53.582;10.062;2023-02-27T02:15:36;102794.22;;;2.43;66.18
17785;BME280;9016;53.582;10.062;2023-02-27T02:18:18;102793.34;;;2.41;67.22
17785;BME280;9016;53.582;10.062;2023-02-27T02:21:20;102795.97;;;2.41;66.69
17785;BME280;9016;53.582;10.062;2023-02-27T02:27:24;102807.34;;;2.37;67.71
17785;BME280;9016;53.582;10.062;2023-02-27T02:36:52;102808.22;;;2.39;66.81
17785;BME280;9016;53.582;10.062;2023-02-27T02:39:53;102805.59;;;2.42;66.84
17785;BME280;9016;53.582;10.062;2023-02-27T02:42:26;102796.81;;;2.38;67.09
17785;BME280;9016;53.582;10.062;2023-02-27T02:45:08;102800.34;;;2.42;66.93
17785;BME280;9016;53.582;10.062;2023-02-27T02:47:54;102801.28;;;2.47;66.87
17785;BME280;9016;53.582;10.062;2023-02-27T02:50:34;102800.34;;;2.40;66.83
17785;BME280;9016;53.582;10.062;2023-02-27T02:53:08;102804.69;;;2.34;67.23
17785;BME280;9016;53.582;10.062;2023-02-27T02:55:42;102795.94;;;2.36;67.51
17785;BME280;9016;53.582;10.062;2023-02-27T02:58:16;102796.81;;;2.35;67.03
17785;BME280;9016;53.582;10.062;2023-02-27T03:00:54;102794.22;;;2.40;67.38
17785;BME280;9016;53.582;10.062;2023-02-27T03:03:26;102804.75;;;2.44;67.38
17785;BME280;9016;53.582;10.062;2023-02-27T03:05:57;102795.13;;;2.48;66.82
17785;BME280;9016;53.582;10.062;2023-02-27T03:08:30;102805.66;;;2.49;67.11
17785;BME280;9016;53.582;10.062;2023-02-27T03:11:02;102795.13;;;2.48;66.69
17785;BME280;9016;53.582;10.062;2023-02-27T03:13:34;102805.66;;;2.49;66.66
17785;BME280;9016;53.582;10.062;2023-02-27T03:16:09;102798.66;;;2.51;66.76
17785;BME280;9016;53.582;10.062;2023-02-27T03:18:42;102796.88;;;2.46;66.92
17785;BME280;9016;53.582;10.062;2023-02-27T03:21:18;102800.34;;;2.40;66.92
17785;BME280;9016;53.582;10.062;2023-02-27T03:23:51;102805.59;;;2.40;67.25
17785;BME280;9016;53.582;10.062;2023-02-27T03:26:30;102802.97;;;2.42;67.03
17785;BME280;9016;53.582;10.062;2023-02-27T03:29:02;102813.50;;;2.37;67.54
17785;BME280;9016;53.582;10.062;2023-02-27T03:31:37;102805.59;;;2.37;67.59
17785;BME280;9016;53.582;10.062;2023-02-27T03:34:13;102814.38;;;2.38;67.70
17785;BME280;9016;53.582;10.062;2023-02-27T03:36:48;102813.50;;;2.42;67.75
17785;BME280;9016;53.582;10.062;2023-02-27T03:39:27;102803.84;;;2.39;66.85
17785;BME280;9016;53.582;10.062;2023-02-27T03:42:09;102812.59;;;2.34;67.79
17785;BME280;9016;53.582;10.062;2023-02-27T03:44:45;102815.22;;;2.32;67.94
17785;BME280;9016;53.582;10.062;2023-02-27T03:47:15;102809.97;;;2.32;68.48
17785;BME280;9016;53.582;10.062;2023-02-27T03:49:48;102820.50;;;2.37;68.02
17785;BME280;9016;53.582;10.062;2023-02-27T03:52:18;102817.00;;;2.39;67.36
17785;BME280;9016;53.582;10.062;2023-02-27T03:54:50;102818.75;;;2.40;67.54
17785;BME280;9016;53.582;10.062;2023-02-27T03:57:21;102816.13;;;2.40;67.88
17785;BME280;9016;53.582;10.062;2023-02-27T03:59:50;102822.22;;;2.36;67.93
17785;BME280;9016;53.582;10.062;2023-02-27T04:02:18;102824.00;;;2.37;67.74
17785;BME280;9016;53.582;10.062;2023-02-27T04:04:47;102832.75;;;2.36;67.67
17785;BME280;9016;53.582;10.062;2023-02-27T04:07:23;102834.53;;;2.34;67.62
17785;BME280;9016;53.582;10.062;2023-02-27T04:10:08;102838.91;;;2.38;67.26
17785;BME280;9016;53.582;10.062;2023-02-27T04:13:00;102845.06;;;2.37;67.63
17785;BME280;9016;53.582;10.062;2023-02-27T04:15:45;102845.06;;;2.34;68.16
17785;BME280;9016;53.582;10.062;2023-02-27T04:18:29;102849.44;;;2.37;67.71
17785;BME280;9016;53.582;10.062;2023-02-27T04:21:07;102852.94;;;2.34;68.00
17785;BME280;9016;53.582;10.062;2023-02-27T04:23:39;102845.00;;;2.27;68.53
17785;BME280;9016;53.582;10.062;2023-02-27T04:26:17;102854.63;;;2.28;68.55
17785;BME280;9016;53.582;10.062;2023-02-27T04:28:56;102861.63;;;2.24;68.45
17785;BME280;9016;53.582;10.062;2023-02-27T04:31:40;102856.34;;;2.24;68.61
17785;BME280;9016;53.582;10.062;2023-02-27T04:34:14;102861.63;;;2.24;68.96
17785;BME280;9016;53.582;10.062;2023-02-27T04:36:48;102874.78;;;2.26;68.73
17785;BME280;9016;53.582;10.062;2023-02-27T04:39:23;102873.88;;;2.25;68.88
17785;BME280;9016;53.582;10.062;2023-02-27T04:41:56;102870.41;;;2.29;68.96
17785;BME280;9016;53.582;10.062;2023-02-27T04:44:28;102874.81;;;2.29;69.04
17785;BME280;9016;53.582;10.062;2023-02-27T04:46:58;102865.97;;;2.21;68.85
17785;BME280;9016;53.582;10.062;2023-02-27T04:49:30;102876.50;;;2.22;69.29
17785;BME280;9016;53.582;10.062;2023-02-27T04:52:04;102875.66;;;2.28;69.53
17785;BME280;9016;53.582;10.062;2023-02-27T04:54:37;102870.34;;;2.20;68.79
17785;BME280;9016;53.582;10.062;2023-02-27T04:57:10;102875.66;;;2.23;69.11
17785;BME280;9016;53.582;10.062;2023-02-27T04:59:45;102872.91;;;2.13;69.87
17785;BME280;9016;53.582;10.062;2023-02-27T05:02:17;102877.31;;;2.12;69.53
17785;BME280;9016;53.582;10.062;2023-02-27T05:04:55;102879.06;;;2.13;70.27
17785;BME280;9016;53.582;10.062;2023-02-27T05:07:29;102874.63;;;2.09;70.10
17785;BME280;9016;53.582;10.062;2023-02-27T05:09:59;102877.25;;;2.08;70.51
17785;BME280;9016;53.582;10.062;2023-02-27T05:12:34;102885.25;;;2.20;70.97
17785;BME280;9016;53.582;10.062;2023-02-27T05:15:10;102888.69;;;2.14;70.35
17785;BME280;9016;53.582;10.062;2023-02-27T05:17:44;102886.03;;;2.10;71.04
17785;BME280;9016;53.582;10.062;2023-02-27T05:20:15;102900.03;;;2.07;71.49
17785;BME280;9016;53.582;10.062;2023-02-27T05:22:46;102890.41;;;2.09;71.50
17785;BME280;9016;53.582;10.062;2023-02-27T05:25:23;102894.84;;;2.15;71.34
17785;BME280;9016;53.582;10.062;2023-02-27T05:27:58;102893.13;;;2.18;71.17
17785;BME280;9016;53.582;10.062;2023-02-27T05:30:34;102888.75;;;2.20;70.44
17785;BME280;9016;53.582;10.062;2023-02-27T05:33:07;102888.75;;;2.16;70.22
17785;BME280;9016;53.582;10.062;2023-02-27T05:35:44;102890.47;;;2.12;71.76
17785;BME280;9016;53.582;10.062;2023-02-27T05:38:18;102889.59;;;2.16;71.04
17785;BME280;9016;53.582;10.062;2023-02-27T05:40:51;102893.94;;;2.13;72.10
17785;BME280;9016;53.582;10.062;2023-02-27T05:43:24;102885.16;;;2.06;72.17
17785;BME280;9016;53.582;10.062;2023-02-27T05:45:58;102885.16;;;2.09;71.87
17785;BME280;9016;53.582;10.062;2023-02-27T05:48:29;102890.41;;;2.05;72.35
17785;BME280;9016;53.582;10.062;2023-02-27T05:50:59;102891.28;;;2.07;72.09
17785;BME280;9016;53.582;10.062;2023-02-27T05:53:31;102888.63;;;2.03;72.40
17785;BME280;9016;53.582;10.062;2023-02-27T05:56:01;102891.31;;;2.10;72.48
17785;BME280;9016;53.582;10.062;2023-02-27T05:58:34;102886.91;;;2.09;72.63
17785;BME280;9016;53.582;10.062;2023-02-27T06:01:08;102888.69;;;2.13;72.78
17785;BME280;9016;53.582;10.062;2023-02-27T06:03:37;102893.13;;;2.20;72.68
17785;BME280;9016;53.582;10.062;2023-02-27T06:06:11;102895.72;;;2.12;72.95
17785;BME280;9016;53.582;10.062;2023-02-27T06:08:40;102900.03;;;2.07;72.43
17785;BME280;9016;53.582;10.062;2023-02-27T06:11:08;102897.47;;;2.12;73.22
17785;BME280;9016;53.582;10.062;2023-02-27T06:13:36;102907.16;;;2.17;72.73
17785;BME280;9016;53.582;10.062;2023-02-27T06:16:11;102905.44;;;2.25;73.10
17785;BME280;9016;53.582;10.062;2023-02-27T06:18:40;102918.59;;;2.22;72.09
17785;BME280;9016;53.582;10.062;2023-02-27T06:21:08;102917.63;;;2.14;71.95
17785;BME280;9016;53.582;10.062;2023-02-27T06:23:36;102915.91;;;2.16;72.89
17785;BME280;9016;53.582;10.062;2023-02-27T06:26:04;102916.75;;;2.12;72.94
17785;BME280;9016;53.582;10.062;2023-02-27T06:28:32;102924.66;;;2.14;73.66
17785;BME280;9016;53.582;10.062;2023-02-27T06:31:00;102929.94;;;2.18;73.38
17785;BME280;9016;53.582;10.062;2023-02-27T06:33:30;102932.63;;;2.24;72.62
17785;BME280;9016;53.582;10.062;2023-02-27T06:35:58;102943.00;;;2.09;72.95
17785;BME280;9016;53.582;10.062;2023-02-27T06:38:26;102943.88;;;2.07;73.41
17785;BME280;9016;53.582;10.062;2023-02-27T06:40:54;102953.47;;;2.03;74.35
17785;BME280;9016;53.582;10.062;2023-02-27T06:43:22;102954.41;;;2.07;74.02
17785;BME280;9016;53.582;10.062;2023-02-27T06:45:52;102946.44;;;2.02;74.09
17785;BME280;9016;53.582;10.062;2023-02-27T06:48:21;102945.59;;;2.05;73.65
17785;BME280;9016;53.582;10.062;2023-02-27T06:50:51;102947.25;;;1.95;74.33
17785;BME280;9016;53.582;10.062;2023-02-27T06:53:21;102945.56;;;2.03;73.85
17785;BME280;9016;53.582;10.062;2023-02-27T06:55:49;102950.81;;;1.98;74.11
17785;BME280;9016;53.582;10.062;2023-02-27T06:58:17;102950.81;;;1.98;73.78
17785;BME280;9016;53.582;10.062;2023-02-27T07:00:45;102959.41;;;1.84;74.53
17785;BME280;9016;53.582;10.062;2023-02-27T07:03:13;102957.53;;;1.75;74.57
17785;BME280;9016;53.582;10.062;2023-02-27T07:05:41;102957.59;;;1.78;74.64
17785;BME280;9016;53.582;10.062;2023-02-27T07:08:11;102962.78;;;1.74;75.45
17785;BME280;9016;53.582;10.062;2023-02-27T07:10:43;102970.84;;;1.90;74.55
17785;BME280;9016;53.582;10.062;2023-02-27T07:13:12;102971.75;;;1.91;74.93
17785;BME280;9016;53.582;10.062;2023-02-27T07:15:44;102968.28;;;1.93;74.85
17785;BME280;9016;53.582;10.062;2023-02-27T07:18:12;102963.94;;;1.97;74.88
17785;BME280;9016;53.582;10.062;2023-02-27T07:20:40;102964.78;;;1.96;75.79
17785;BME280;9016;53.582;10.062;2023-02-27T07:23:08;102965.75;;;2.06;75.29
17785;BME280;9016;53.582;10.062;2023-02-27T07:25:38;102972.81;;;2.07;76.10
17785;BME280;9016;53.582;10.062;2023-02-27T07:28:09;102972.03;;;2.18;75.77
17785;BME280;9016;53.582;10.062;2023-02-27T07:30:37;102972.09;;;2.26;75.89
17785;BME280;9016;53.582;10.062;2023-02-27T07:33:05;102966.84;;;2.26;76.41
17785;BME280;9016;53.582;10.062;2023-02-27T07:35:33;102964.28;;;2.36;76.66
17785;BME280;9016;53.582;10.062;2023-02-27T07:38:01;102969.69;;;2.48;76.16
17785;BME280;9016;53.582;10.062;2023-02-27T07:40:29;102972.31;;;2.50;76.51
17785;BME280;9016;53.582;10.062;2023-02-27T07:42:58;102970.63;;;2.58;76.77
17785;BME280;9016;53.582;10.062;2023-02-27T07:45:26;102968.00;;;2.56;77.42
17785;BME280;9016;53.582;10.062;2023-02-27T07:47:55;102975.00;;;2.57;77.84
17785;BME280;9016;53.582;10.062;2023-02-27T07:50:23;102967.19;;;2.66;78.00
17785;BME280;9016;53.582;10.062;2023-02-27T07:52:51;102966.41;;;2.79;77.64
17785;BME280;9016;53.582;10.062;2023-02-27T07:55:19;102971.72;;;2.87;77.63
17785;BME280;9016;53.582;10.062;2023-02-27T07:57:47;102970.94;;;3.03;77.92
17785;BME280;9016;53.582;10.062;2023-02-27T08:00:17;102966.66;;;3.19;77.07
17785;BME280;9016;53.582;10.062;2023-02-27T08:02:48;102970.16;;;3.12;76.90
17785;BME280;9016;53.582;10.062;2023-02-27T08:05:16;102973.69;;;3.17;77.77
17785;BME280;9016;53.582;10.062;2023-02-27T08:07:45;102963.16;;;3.21;78.02
17785;BME280;9016;53.582;10.062;2023-02-27T08:10:13;102967.63;;;3.34;77.39
17785;BME280;9016;53.582;10.062;2023-02-27T08:12:42;102964.97;;;3.33;77.79
17785;BME280;9016;53.582;10.062;2023-02-27T08:15:11;102964.97;;;3.34;77.75
17785;BME280;9016;53.582;10.062;2023-02-27T08:17:40;102968.50;;;3.33;78.31
17785;BME280;9016;53.582;10.062;2023-02-27T08:20:09;102973.81;;;3.45;78.70
17785;BME280;9016;53.582;10.062;2023-02-27T08:22:39;102965.94;;;3.53;78.56
17785;BME280;9016;53.582;10.062;2023-02-27T08:25:09;102968.63;;;3.62;78.00
17785;BME280;9016;53.582;10.062;2023-02-27T08:27:37;102973.91;;;3.71;77.91
17785;BME280;9016;53.582;10.062;2023-02-27T08:30:07;102973.09;;;3.79;77.90
17785;BME280;9016;53.582;10.062;2023-02-27T08:32:36;102974.88;;;3.83;77.47
17785;BME280;9016;53.582;10.062;2023-02-27T08:35:06;102978.41;;;3.94;77.46
17785;BME280;9016;53.582;10.062;2023-02-27T08:37:35;102974.03;;;4.10;76.71
17785;BME280;9016;53.582;10.062;2023-02-27T08:40:04;102975.81;;;4.23;76.21
17785;BME280;9016;53.582;10.062;2023-02-27T08:42:32;102977.59;;;4.38;75.93
17785;BME280;9016;53.582;10.062;2023-02-27T08:45:01;102989.91;;;4.36;75.46
17785;BME280;9016;53.582;10.062;2023-02-27T08:47:29;102988.13;;;4.27;75.39
17785;BME280;9016;53.582;10.062;2023-02-27T08:49:57;102989.03;;;4.49;75.36
17785;BME280;9016;53.582;10.062;2023-02-27T08:52:27;102984.66;;;4.48;74.04
17785;BME280;9016;53.582;10.062;2023-02-27T08:54:54;102989.94;;;4.63;73.60
17785;BME280;9016;53.582;10.062;2023-02-27T08:57:22;102990.81;;;4.66;73.16
17785;BME280;9016;53.582;10.062;2023-02-27T08:59:50;102994.31;;;4.59;72.16
17785;BME280;9016;53.582;10.062;2023-02-27T09:02:19;103002.25;;;4.61;71.58
17785;BME280;9016;53.582;10.062;2023-02-27T09:04:49;103003.13;;;4.73;71.08
17785;BME280;9016;53.582;10.062;2023-02-27T09:07:18;102996.09;;;4.84;70.45
17785;BME280;9016;53.582;10.062;2023-02-27T09:09:48;103002.22;;;4.83;69.40
17785;BME280;9016;53.582;10.062;2023-02-27T09:12:16;103001.38;;;4.84;68.83
17785;BME280;9016;53.582;10.062;2023-02-27T09:14:44;102992.56;;;4.90;68.26
17785;BME280;9016;53.582;10.062;2023-02-27T09:17:11;102997.81;;;5.02;67.26
17785;BME280;9016;53.582;10.062;2023-02-27T09:19:40;102997.81;;;5.13;65.76
17785;BME280;9016;53.582;10.062;2023-02-27T09:22:08;103008.38;;;5.16;64.68
17785;BME280;9016;53.582;10.062;2023-02-27T09:24:36;103007.47;;;5.21;65.11
17785;BME280;9016;53.582;10.062;2023-02-27T09:27:05;103002.19;;;5.27;63.21
17785;BME280;9016;53.582;10.062;2023-02-27T09:29:33;103008.31;;;5.35;63.34
17785;BME280;9016;53.582;10.062;2023-02-27T09:32:01;103007.47;;;5.27;63.20
17785;BME280;9016;53.582;10.062;2023-02-27T09:34:29;103010.09;;;5.33;61.98
17785;BME280;9016;53.582;10.062;2023-02-27T09:36:58;103010.09;;;5.35;60.47
17785;BME280;9016;53.582;10.062;2023-02-27T09:39:26;103016.25;;;5.41;60.50
17785;BME280;9016;53.582;10.062;2023-02-27T09:41:59;103008.25;;;5.59;59.68
17785;BME280;9016;53.582;10.062;2023-02-27T09:44:36;103005.59;;;5.58;58.17
17785;BME280;9016;53.582;10.062;2023-02-27T09:47:16;103001.16;;;5.67;58.40
17785;BME280;9016;53.582;10.062;2023-02-27T09:49:51;102998.47;;;5.84;57.85
17785;BME280;9016;53.582;10.062;2023-02-27T09:52:22;102996.59;;;6.04;57.69
17785;BME280;9016;53.582;10.062;2023-02-27T09:54:50;102998.25;;;6.25;54.89
17785;BME280;9016;53.582;10.062;2023-02-27T09:57:26;102997.22;;;6.45;52.26
17785;BME280;9016;53.582;10.062;2023-02-27T10:00:02;102987.44;;;6.53;51.77
17785;BME280;9016;53.582;10.062;2023-02-27T10:02:41;102981.06;;;6.78;51.25
17785;BME280;9016;53.582;10.062;2023-02-27T10:05:18;102980.00;;;6.96;51.24
17785;BME280;9016;53.582;10.062;2023-02-27T10:07:58;102977.47;;;6.85;49.73
17785;BME280;9016;53.582;10.062;2023-02-27T10:10:33;102977.38;;;6.94;51.04
17785;BME280;9016;53.582;10.062;2023-02-27T10:13:29;102986.81;;;7.20;48.66
17785;BME280;9016;53.582;10.062;2023-02-27T10:16:02;102983.03;;;7.43;48.32
17785;BME280;9016;53.582;10.062;2023-02-27T10:18:34;102983.47;;;7.78;48.44
17785;BME280;9016;53.582;10.062;2023-02-27T10:21:09;102981.63;;;7.85;46.71
17785;BME280;9016;53.582;10.062;2023-02-27T10:23:41;102988.78;;;7.78;45.97
17785;BME280;9016;53.582;10.062;2023-02-27T10:26:17;102988.31;;;8.12;46.32
17785;BME280;9016;53.582;10.062;2023-02-27T10:28:46;102986.44;;;8.20;45.56
17785;BME280;9016;53.582;10.062;2023-02-27T10:31:18;102986.13;;;8.42;46.46
17785;BME280;9016;53.582;10.062;2023-02-27T10:33:48;102987.56;;;8.63;44.51
17785;BME280;9016;53.582;10.062;2023-02-27T10:36:18;102992.75;;;8.70;45.78
17785;BME280;9016;53.582;10.062;2023-02-27T10:39:02;102995.06;;;8.90;46.06
17785;BME280;9016;53.582;10.062;2023-02-27T10:41:31;103000.53;;;8.82;42.85
17785;BME280;9016;53.582;10.062;2023-02-27T10:43:59;103015.16;;;8.54;43.34
17785;BME280;9016;53.582;10.062;2023-02-27T10:46:31;103012.63;;;8.45;44.51
17785;BME280;9016;53.582;10.062;2023-02-27T10:49:12;103011.19;;;8.81;43.09
17785;BME280;9016;53.582;10.062;2023-02-27T10:51:44;103024.88;;;9.09;41.92
17785;BME280;9016;53.582;10.062;2023-02-27T10:54:19;103019.47;;;9.15;42.60
17785;BME280;9016;53.582;10.062;2023-02-27T10:56:54;103009.28;;;8.87;41.63
17785;BME280;9016;53.582;10.062;2023-02-27T10:59:25;103020.56;;;9.03;41.97
17785;BME280;9016;53.582;10.062;2023-02-27T11:01:57;103013.63;;;8.93;42.14
17785;BME280;9016;53.582;10.062;2023-02-27T11:04:30;103013.28;;;9.13;41.81
17785;BME280;9016;53.582;10.062;2023-02-27T11:07:00;103021.47;;;9.00;40.96
17785;BME280;9016;53.582;10.062;2023-02-27T11:09:33;103026.75;;;9.04;42.01
17785;BME280;9016;53.582;10.062;2023-02-27T11:12:17;103021.88;;;8.76;41.03
17785;BME280;9016;53.582;10.062;2023-02-27T11:14:54;103018.31;;;8.79;41.61
17785;BME280;9016;53.582;10.062;2023-02-27T11:17:27;103017.91;;;8.50;41.83
17785;BME280;9016;53.582;10.062;2023-02-27T11:19:59;103019.56;;;8.57;41.17
17785;BME280;9016;53.582;10.062;2023-02-27T11:22:29;103022.91;;;8.68;40.67
17785;BME280;9016;53.582;10.062;2023-02-27T11:25:18;103022.16;;;8.60;41.45
17785;BME280;9016;53.582;10.062;2023-02-27T11:27:50;103028.75;;;8.89;42.19
17785;BME280;9016;53.582;10.062;2023-02-27T11:30:23;103026.34;;;9.25;41.82
17785;BME280;9016;53.582;10.062;2023-02-27T11:32:56;103028.13;;;9.26;41.46
17785;BME280;9016;53.582;10.062;2023-02-27T11:35:28;103031.72;;;9.23;40.86
17785;BME280;9016;53.582;10.062;2023-02-27T11:38:01;103035.00;;;9.36;41.00
17785;BME280;9016;53.582;10.062;2023-02-27T11:40:33;103030.84;;;9.21;40.96
17785;BME280;9016;53.582;10.062;2023-02-27T11:43:13;103029.00;;;9.25;41.65
17785;BME280;9016;53.582;10.062;2023-02-27T11:45:49;103027.13;;;9.31;41.08
17785;BME280;9016;53.582;10.062;2023-02-27T11:48:40;103031.97;;;9.08;42.04
17785;BME280;9016;53.582;10.062;2023-02-27T11:51:28;103021.72;;;9.36;42.41
17785;BME280;9016;53.582;10.062;2023-02-27T11:54:09;103028.13;;;9.26;43.09
17785;BME280;9016;53.582;10.062;2023-02-27T11:56:43;103023.75;;;9.22;43.73
17785;BME280;9016;53.582;10.062;2023-02-27T11:59:25;103033.75;;;9.08;43.63
17785;BME280;9016;53.582;10.062;2023-02-27T12:02:00;103027.75;;;8.96;43.27
17785;BME280;9016;53.582;10.062;2023-02-27T12:04:41;103025.91;;;9.02;43.52
17785;BME280;9016;53.582;10.062;2023-02-27T12:07:15;103020.25;;;9.20;43.08
17785;BME280;9016;53.582;10.062;2023-02-27T12:09:50;103019.16;;;9.30;44.21
17785;BME280;9016;53.582;10.062;2023-02-27T12:12:23;103009.72;;;9.14;43.15
17785;BME280;9016;53.582;10.062;2023-02-27T12:14:58;103006.13;;;9.16;43.42
17785;BME280;9016;53.582;10.062;2023-02-27T12:17:32;103012.50;;;9.06;42.76
17785;BME280;9016;53.582;10.062;2023-02-27T12:20:34;103007.00;;;8.66;42.46
17785;BME280;9016;53.582;10.062;2023-02-27T12:23:09;103017.34;;;8.83;43.81
17785;BME280;9016;53.582;10.062;2023-02-27T12:25:45;103010.66;;;8.59;41.59
17785;BME280;9016;53.582;10.062;2023-02-27T12:28:22;103018.84;;;8.46;42.75
17785;BME280;9016;53.582;10.062;2023-02-27T12:31:03;103020.72;;;8.38;43.89
17785;BME280;9016;53.582;10.062;2023-02-27T12:33:37;103016.91;;;8.57;44.08
17785;BME280;9016;53.582;10.062;2023-02-27T12:36:10;103008.88;;;8.60;43.87
17785;BME280;9016;53.582;10.062;2023-02-27T12:38:40;103007.72;;;8.74;45.31
17785;BME280;9016;53.582;10.062;2023-02-27T12:41:28;103003.94;;;8.37;44.09
17785;BME280;9016;53.582;10.062;2023-02-27T12:44:09;103001.91;;;8.53;44.83
17785;BME280;9016;53.582;10.062;2023-02-27T12:46:46;102997.44;;;8.55;44.89
17785;BME280;9016;53.582;10.062;2023-02-27T12:49:27;102998.38;;;8.51;45.15
17785;BME280;9016;53.582;10.062;2023-02-27T12:52:04;102998.34;;;8.54;45.04
17785;BME280;9016;53.582;10.062;2023-02-27T12:54:41;102997.44;;;8.55;44.38
17785;BME280;9016;53.582;10.062;2023-02-27T12:57:27;102976.28;;;8.49;45.61
17785;BME280;9016;53.582;10.062;2023-02-27T13:00:04;102993.13;;;8.48;46.29
17785;BME280;9016;53.582;10.062;2023-02-27T13:02:48;102989.66;;;8.43;46.36
17785;BME280;9016;53.582;10.062;2023-02-27T13:05:39;102987.78;;;8.49;46.49
17785;BME280;9016;53.582;10.062;2023-02-27T13:11:05;102994.31;;;8.27;45.03
17785;BME280;9016;53.582;10.062;2023-02-27T13:13:39;102985.44;;;8.28;45.01
17785;BME280;9016;53.582;10.062;2023-02-27T13:16:12;102981.75;;;8.38;44.29
17785;BME280;9016;53.582;10.062;2023-02-27T13:18:44;102992.41;;;8.37;43.88
17785;BME280;9016;53.582;10.062;2023-02-27T13:21:20;102991.34;;;8.47;44.27
17785;BME280;9016;53.582;10.062;2023-02-27T13:24:01;102994.13;;;8.41;43.72
17785;BME280;9016;53.582;10.062;2023-02-27T13:26:38;102992.34;;;8.43;43.75
17785;BME280;9016;53.582;10.062;2023-02-27T13:29:11;102982.44;;;8.51;44.74
17785;BME280;9016;53.582;10.062;2023-02-27T13:31:54;102988.56;;;8.57;43.24
17785;BME280;9016;53.582;10.062;2023-02-27T13:34:31;102987.59;;;8.60;43.10
17785;BME280;9016;53.582;10.062;2023-02-27T13:37:05;102984.22;;;8.50;44.08
17785;BME280;9016;53.582;10.062;2023-02-27T13:39:50;102979.19;;;8.32;43.63
17785;BME280;9016;53.582;10.062;2023-02-27T13:42:49;102981.94;;;8.28;44.60